sensor_id;sensor_type;location;lat;lon;timestamp;temperature;humidity
11569;DHT22;5840;46.894;15.542;2022-12-07T00:00:20;1.40;99.90
11569;DHT22;5840;46.894;15.542;2022-12-07T00:02:47;1.40;99.90
11569;DHT22;5840;46.894;15.542;2022-12-07T00:05:14;1.40;99.90
11569;DHT22;5840;46.894;15.542;2022-12-07T00:07:41;1.40;99.90
11569;DHT22;5840;46.894;15.542;2022-12-07T00:10:08;1.30;99.90
11569;DHT22;5840;46.894;15.542;2022-12-07T00:12:35;1.30;99.90
11569;DHT22;5840;46.894;15.542;2022-12-07T00:15:03;1.30;99.90
11569;DHT22;5840;46.894;15.542;2022-12-07T00:17:31;1.30;99.90
11569;DHT22;5840;46.894;15.542;2022-12-07T00:19:59;1.20;99.90
11569;DHT22;5840;46.894;15.542;2022-12-07T00:22:26;1.20;99.90
11569;DHT22;5840;46.894;15.542;2022-12-07T00:24:53;1.20;99.90
11569;DHT22;5840;46.894;15.542;2022-12-07T00:27:19;1.20;99.90
11569;DHT22;5840;46.894;15.542;2022-12-07T00:29:46;1.20;99.90
11569;DHT22;5840;46.894;15.542;2022-12-07T00:32:13;1.20;99.90
11569;DHT22;5840;46.894;15.542;2022-12-07T00:34:42;1.20;99.90
11569;DHT22;5840;46.894;15.542;2022-12-07T00:37:08;1.10;99.90
11569;DHT22;5840;46.894;15.542;2022-12-07T00:39:35;1.10;99.90
11569;DHT22;5840;46.894;15.542;2022-12-07T00:42:02;1.10;99.90
11569;DHT22;5840;46.894;15.542;2022-12-07T00:44:29;1.10;99.90
11569;DHT22;5840;46.894;15.542;2022-12-07T00:46:56;1.10;99.90
11569;DHT22;5840;46.894;15.542;2022-12-07T00:49:23;1.10;99.90
11569;DHT22;5840;46.894;15.542;2022-12-07T00:51:51;1.10;99.90
11569;DHT22;5840;46.894;15.542;2022-12-07T00:54:18;1.10;99.90
11569;DHT22;5840;46.894;15.542;2022-12-07T00:56:45;1.10;99.90
11569;DHT22;5840;46.894;15.542;2022-12-07T00:59:13;1.10;99.90
11569;DHT22;5840;46.894;15.542;2022-12-07T01:01:40;1.10;99.90
11569;DHT22;5840;46.894;15.542;2022-12-07T01:04:07;1.10;99.90
11569;DHT22;5840;46.894;15.542;2022-12-07T01:06:34;1.10;99.90
11569;DHT22;5840;46.894;15.542;2022-12-07T01:09:03;1.10;99.90
11569;DHT22;5840;46.894;15.542;2022-12-07T01:11:31;1.10;99.90
11569;DHT22;5840;46.894;15.542;2022-12-07T01:13:59;1.10;99.90
11569;DHT22;5840;46.894;15.542;2022-12-07T01:16:28;1.00;99.90
11569;DHT22;5840;46.894;15.542;2022-12-07T01:18:57;1.00;99.90
11569;DHT22;5840;46.894;15.542;2022-12-07T01:21:25;0.90;99.90
11569;DHT22;5840;46.894;15.542;2022-12-07T01:23:53;1.00;99.90
11569;DHT22;5840;46.894;15.542;2022-12-07T01:26:23;1.00;99.90
11569;DHT22;5840;46.894;15.542;2022-12-07T01:28:50;1.00;99.90
11569;DHT22;5840;46.894;15.542;2022-12-07T01:31:22;1.00;99.90
11569;DHT22;5840;46.894;15.542;2022-12-07T01:33:51;1.00;99.90
11569;DHT22;5840;46.894;15.542;2022-12-07T01:36:20;1.00;99.90
11569;DHT22;5840;46.894;15.542;2022-12-07T01:38:49;1.00;99.90
11569;DHT22;5840;46.894;15.542;2022-12-07T01:41:18;1.10;99.90
11569;DHT22;5840;46.894;15.542;2022-12-07T01:46:57;1.00;99.90
11569;DHT22;5840;46.894;15.542;2022-12-07T01:49:31;1.00;99.90
11569;DHT22;5840;46.894;15.542;2022-12-07T01:52:08;1.00;99.90
11569;DHT22;5840;46.894;15.542;2022-12-07T01:54:36;1.00;99.90
11569;DHT22;5840;46.894;15.542;2022-12-07T01:57:04;1.00;99.90
11569;DHT22;5840;46.894;15.542;2022-12-07T01:59:33;1.00;99.90
11569;DHT22;5840;46.894;15.542;2022-12-07T02:02:04;1.00;99.90
11569;DHT22;5840;46.894;15.542;2022-12-07T02:04:36;1.00;99.90
11569;DHT22;5840;46.894;15.542;2022-12-07T02:07:03;0.90;99.90
11569;DHT22;5840;46.894;15.542;2022-12-07T02:09:31;0.90;99.90
11569;DHT22;5840;46.894;15.542;2022-12-07T02:11:58;0.90;99.90
11569;DHT22;5840;46.894;15.542;2022-12-07T02:14:25;0.90;99.90
11569;DHT22;5840;46.894;15.542;2022-12-07T02:17:03;0.80;99.90
11569;DHT22;5840;46.894;15.542;2022-12-07T02:20:06;0.80;99.90
11569;DHT22;5840;46.894;15.542;2022-12-07T02:26:19;0.70;99.90
11569;DHT22;5840;46.894;15.542;2022-12-07T02:29:11;0.70;99.90
11569;DHT22;5840;46.894;15.542;2022-12-07T02:31:45;0.70;99.90
11569;DHT22;5840;46.894;15.542;2022-12-07T02:34:19;0.70;99.90
11569;DHT22;5840;46.894;15.542;2022-12-07T02:36:54;0.70;99.90
11569;DHT22;5840;46.894;15.542;2022-12-07T02:39:26;0.70;99.90
11569;DHT22;5840;46.894;15.542;2022-12-07T02:41:58;0.70;99.90
11569;DHT22;5840;46.894;15.542;2022-12-07T02:44:28;0.70;99.90
11569;DHT22;5840;46.894;15.542;2022-12-07T02:47:00;0.70;99.90
11569;DHT22;5840;46.894;15.542;2022-12-07T02:49:28;0.60;99.90
11569;DHT22;5840;46.894;15.542;2022-12-07T02:51:56;0.60;99.90
11569;DHT22;5840;46.894;15.542;2022-12-07T02:54:22;0.60;99.90
11569;DHT22;5840;46.894;15.542;2022-12-07T02:56:51;0.60;99.90
11569;DHT22;5840;46.894;15.542;2022-12-07T02:59:32;0.60;99.90
11569;DHT22;5840;46.894;15.542;2022-12-07T03:02:08;0.60;99.90
11569;DHT22;5840;46.894;15.542;2022-12-07T03:04:45;0.60;99.90
11569;DHT22;5840;46.894;15.542;2022-12-07T03:07:23;0.60;99.90
11569;DHT22;5840;46.894;15.542;2022-12-07T03:09:59;0.50;99.90
11569;DHT22;5840;46.894;15.542;2022-12-07T03:12:32;0.50;99.90
11569;DHT22;5840;46.894;15.542;2022-12-07T03:15:09;0.50;99.90
11569;DHT22;5840;46.894;15.542;2022-12-07T03:17:40;0.50;99.90
11569;DHT22;5840;46.894;15.542;2022-12-07T03:20:11;0.50;99.90
11569;DHT22;5840;46.894;15.542;2022-12-07T03:22:41;0.50;99.90
11569;DHT22;5840;46.894;15.542;2022-12-07T03:25:11;0.50;99.90
11569;DHT22;5840;46.894;15.542;2022-12-07T03:27:42;0.50;99.90
11569;DHT22;5840;46.894;15.542;2022-12-07T03:30:16;0.50;99.90
11569;DHT22;5840;46.894;15.542;2022-12-07T03:32:46;0.40;99.90
11569;DHT22;5840;46.894;15.542;2022-12-07T03:35:19;0.40;99.90
11569;DHT22;5840;46.894;15.542;2022-12-07T03:37:50;0.40;99.90
11569;DHT22;5840;46.894;15.542;2022-12-07T03:40:22;0.40;99.90
11569;DHT22;5840;46.894;15.542;2022-12-07T03:42:51;0.40;99.90
11569;DHT22;5840;46.894;15.542;2022-12-07T03:45:24;0.40;99.90
11569;DHT22;5840;46.894;15.542;2022-12-07T03:48:02;0.40;99.90
11569;DHT22;5840;46.894;15.542;2022-12-07T03:50:38;0.40;99.90
11569;DHT22;5840;46.894;15.542;2022-12-07T03:53:09;0.40;99.90
11569;DHT22;5840;46.894;15.542;2022-12-07T03:55:40;0.40;99.90
11569;DHT22;5840;46.894;15.542;2022-12-07T03:58:10;0.40;99.90
11569;DHT22;5840;46.894;15.542;2022-12-07T04:00:40;0.40;99.90
11569;DHT22;5840;46.894;15.542;2022-12-07T04:03:08;0.40;99.90
11569;DHT22;5840;46.894;15.542;2022-12-07T04:05:35;0.40;99.90
11569;DHT22;5840;46.894;15.542;2022-12-07T04:08:02;0.50;99.90
11569;DHT22;5840;46.894;15.542;2022-12-07T04:10:29;0.50;99.90
11569;DHT22;5840;46.894;15.542;2022-12-07T04:12:56;0.50;99.90
11569;DHT22;5840;46.894;15.542;2022-12-07T04:15:23;0.60;99.90
11569;DHT22;5840;46.894;15.542;2022-12-07T04:17:51;0.60;99.90
11569;DHT22;5840;46.894;15.542;2022-12-07T04:20:19;0.60;99.90
11569;DHT22;5840;46.894;15.542;2022-12-07T04:22:46;0.60;99.90
11569;DHT22;5840;46.894;15.542;2022-12-07T04:25:13;0.50;99.90
11569;DHT22;5840;46.894;15.542;2022-12-07T04:27:40;0.50;99.90
11569;DHT22;5840;46.894;15.542;2022-12-07T04:30:08;0.50;99.90
11569;DHT22;5840;46.894;15.542;2022-12-07T04:32:35;0.50;99.90
11569;DHT22;5840;46.894;15.542;2022-12-07T04:35:04;0.50;99.90
11569;DHT22;5840;46.894;15.542;2022-12-07T04:37:31;0.50;99.90
11569;DHT22;5840;46.894;15.542;2022-12-07T04:39:58;0.40;99.90
11569;DHT22;5840;46.894;15.542;2022-12-07T04:42:25;0.40;99.90
11569;DHT22;5840;46.894;15.542;2022-12-07T04:44:52;0.40;99.90
11569;DHT22;5840;46.894;15.542;2022-12-07T04:47:20;0.40;99.90
11569;DHT22;5840;46.894;15.542;2022-12-07T04:49:47;0.40;99.90
11569;DHT22;5840;46.894;15.542;2022-12-07T04:52:15;0.40;99.90
11569;DHT22;5840;46.894;15.542;2022-12-07T04:54:42;0.40;99.90
11569;DHT22;5840;46.894;15.542;2022-12-07T04:57:09;0.40;99.90
11569;DHT22;5840;46.894;15.542;2022-12-07T04:59:36;0.40;99.90
11569;DHT22;5840;46.894;15.542;2022-12-07T05:02:03;0.50;99.90
11569;DHT22;5840;46.894;15.542;2022-12-07T05:04:30;0.50;99.90
11569;DHT22;5840;46.894;15.542;2022-12-07T05:06:57;0.50;99.90
11569;DHT22;5840;46.894;15.542;2022-12-07T05:09:25;0.50;99.90
11569;DHT22;5840;46.894;15.542;2022-12-07T05:11:52;0.40;99.90
11569;DHT22;5840;46.894;15.542;2022-12-07T05:14:20;0.40;99.90
11569;DHT22;5840;46.894;15.542;2022-12-07T05:16:49;0.40;99.90
11569;DHT22;5840;46.894;15.542;2022-12-07T05:19:16;0.30;99.90
11569;DHT22;5840;46.894;15.542;2022-12-07T05:21:44;0.30;99.90
11569;DHT22;5840;46.894;15.542;2022-12-07T05:24:12;0.30;99.90
11569;DHT22;5840;46.894;15.542;2022-12-07T05:26:41;0.30;99.90
11569;DHT22;5840;46.894;15.542;2022-12-07T05:29:10;0.30;99.90
11569;DHT22;5840;46.894;15.542;2022-12-07T05:31:38;0.30;99.90
11569;DHT22;5840;46.894;15.542;2022-12-07T05:34:05;0.30;99.90
11569;DHT22;5840;46.894;15.542;2022-12-07T05:36:32;0.30;99.90
11569;DHT22;5840;46.894;15.542;2022-12-07T05:38:59;0.30;99.90
11569;DHT22;5840;46.894;15.542;2022-12-07T05:41:26;0.30;99.90
11569;DHT22;5840;46.894;15.542;2022-12-07T05:44:12;0.30;99.90
11569;DHT22;5840;46.894;15.542;2022-12-07T05:46:38;0.30;99.90
11569;DHT22;5840;46.894;15.542;2022-12-07T05:49:05;0.30;99.90
11569;DHT22;5840;46.894;15.542;2022-12-07T05:51:32;0.30;99.90
11569;DHT22;5840;46.894;15.542;2022-12-07T05:53:59;0.30;99.90
11569;DHT22;5840;46.894;15.542;2022-12-07T05:56:26;0.30;99.90
11569;DHT22;5840;46.894;15.542;2022-12-07T05:58:53;0.30;99.90
11569;DHT22;5840;46.894;15.542;2022-12-07T06:01:39;0.30;99.90
11569;DHT22;5840;46.894;15.542;2022-12-07T06:04:06;0.30;99.90
11569;DHT22;5840;46.894;15.542;2022-12-07T06:06:33;0.20;99.90
11569;DHT22;5840;46.894;15.542;2022-12-07T06:09:00;0.20;99.90
11569;DHT22;5840;46.894;15.542;2022-12-07T06:11:27;0.20;99.90
11569;DHT22;5840;46.894;15.542;2022-12-07T06:14:11;0.20;99.90
11569;DHT22;5840;46.894;15.542;2022-12-07T06:16:39;0.20;99.90
11569;DHT22;5840;46.894;15.542;2022-12-07T06:19:06;0.10;99.90
11569;DHT22;5840;46.894;15.542;2022-12-07T06:21:33;0.10;99.90
11569;DHT22;5840;46.894;15.542;2022-12-07T06:24:00;0.10;99.90
11569;DHT22;5840;46.894;15.542;2022-12-07T06:26:27;0.10;99.90
11569;DHT22;5840;46.894;15.542;2022-12-07T06:28:54;0.00;99.90
11569;DHT22;5840;46.894;15.542;2022-12-07T06:31:21;0.10;99.90
11569;DHT22;5840;46.894;15.542;2022-12-07T06:33:49;0.10;99.90
11569;DHT22;5840;46.894;15.542;2022-12-07T06:36:16;0.10;99.90
11569;DHT22;5840;46.894;15.542;2022-12-07T06:38:43;0.10;99.90
11569;DHT22;5840;46.894;15.542;2022-12-07T06:41:10;0.00;99.90
11569;DHT22;5840;46.894;15.542;2022-12-07T06:43:37;0.00;99.90
11569;DHT22;5840;46.894;15.542;2022-12-07T06:46:04;0.00;99.90
11569;DHT22;5840;46.894;15.542;2022-12-07T06:48:31;0.00;99.90
11569;DHT22;5840;46.894;15.542;2022-12-07T06:50:59;0.00;99.90
11569;DHT22;5840;46.894;15.542;2022-12-07T06:53:26;0.00;99.90
11569;DHT22;5840;46.894;15.542;2022-12-07T06:55:53;0.00;99.90
11569;DHT22;5840;46.894;15.542;2022-12-07T06:58:20;0.10;99.90
11569;DHT22;5840;46.894;15.542;2022-12-07T07:00:48;0.10;99.90
11569;DHT22;5840;46.894;15.542;2022-12-07T07:03:16;0.10;99.90
11569;DHT22;5840;46.894;15.542;2022-12-07T07:05:43;0.10;99.90
11569;DHT22;5840;46.894;15.542;2022-12-07T07:08:12;0.10;99.90
11569;DHT22;5840;46.894;15.542;2022-12-07T07:10:39;0.10;99.90
11569;DHT22;5840;46.894;15.542;2022-12-07T07:13:07;0.10;99.90
11569;DHT22;5840;46.894;15.542;2022-12-07T07:15:34;0.10;99.90
11569;DHT22;5840;46.894;15.542;2022-12-07T07:18:03;0.20;99.90
11569;DHT22;5840;46.894;15.542;2022-12-07T07:20:30;0.20;99.90
11569;DHT22;5840;46.894;15.542;2022-12-07T07:22:57;0.20;99.90
11569;DHT22;5840;46.894;15.542;2022-12-07T07:25:26;0.20;99.90
11569;DHT22;5840;46.894;15.542;2022-12-07T07:27:52;0.10;99.90
11569;DHT22;5840;46.894;15.542;2022-12-07T07:30:20;0.10;99.90
11569;DHT22;5840;46.894;15.542;2022-12-07T07:32:47;0.20;99.90
11569;DHT22;5840;46.894;15.542;2022-12-07T07:35:14;0.20;99.90
11569;DHT22;5840;46.894;15.542;2022-12-07T07:37:41;0.20;99.90
11569;DHT22;5840;46.894;15.542;2022-12-07T07:40:09;0.30;99.90
11569;DHT22;5840;46.894;15.542;2022-12-07T07:42:37;0.30;99.90
11569;DHT22;5840;46.894;15.542;2022-12-07T07:45:05;0.30;99.90
11569;DHT22;5840;46.894;15.542;2022-12-07T07:47:32;0.30;99.90
11569;DHT22;5840;46.894;15.542;2022-12-07T07:49:59;0.30;99.90
11569;DHT22;5840;46.894;15.542;2022-12-07T07:52:26;0.40;99.90
11569;DHT22;5840;46.894;15.542;2022-12-07T07:54:53;0.40;99.90
11569;DHT22;5840;46.894;15.542;2022-12-07T07:57:20;0.50;99.90
11569;DHT22;5840;46.894;15.542;2022-12-07T07:59:48;0.60;99.90
11569;DHT22;5840;46.894;15.542;2022-12-07T08:02:16;0.60;99.90
11569;DHT22;5840;46.894;15.542;2022-12-07T08:04:44;0.70;99.90
11569;DHT22;5840;46.894;15.542;2022-12-07T08:07:13;0.70;99.90
11569;DHT22;5840;46.894;15.542;2022-12-07T08:09:40;0.80;99.90
11569;DHT22;5840;46.894;15.542;2022-12-07T08:12:07;0.80;99.90
11569;DHT22;5840;46.894;15.542;2022-12-07T08:14:34;0.90;99.90
11569;DHT22;5840;46.894;15.542;2022-12-07T08:17:02;0.90;99.90
11569;DHT22;5840;46.894;15.542;2022-12-07T08:19:29;1.00;99.90
11569;DHT22;5840;46.894;15.542;2022-12-07T08:21:56;1.00;99.90
11569;DHT22;5840;46.894;15.542;2022-12-07T08:24:25;1.00;99.90
11569;DHT22;5840;46.894;15.542;2022-12-07T08:26:52;1.00;99.90
11569;DHT22;5840;46.894;15.542;2022-12-07T08:29:19;1.00;99.90
11569;DHT22;5840;46.894;15.542;2022-12-07T08:31:46;1.00;99.90
11569;DHT22;5840;46.894;15.542;2022-12-07T08:34:14;1.00;99.90
11569;DHT22;5840;46.894;15.542;2022-12-07T08:36:41;1.00;99.90
11569;DHT22;5840;46.894;15.542;2022-12-07T08:39:08;1.00;99.90
11569;DHT22;5840;46.894;15.542;2022-12-07T08:41:35;1.00;99.90
11569;DHT22;5840;46.894;15.542;2022-12-07T08:44:03;1.00;99.90
11569;DHT22;5840;46.894;15.542;2022-12-07T08:46:34;1.00;99.90
11569;DHT22;5840;46.894;15.542;2022-12-07T08:49:05;1.00;99.90
11569;DHT22;5840;46.894;15.542;2022-12-07T08:51:35;0.90;99.90
11569;DHT22;5840;46.894;15.542;2022-12-07T08:54:04;0.90;99.90
11569;DHT22;5840;46.894;15.542;2022-12-07T08:56:34;0.90;99.90
11569;DHT22;5840;46.894;15.542;2022-12-07T08:59:01;0.90;99.90
11569;DHT22;5840;46.894;15.542;2022-12-07T09:01:28;0.90;99.90
11569;DHT22;5840;46.894;15.542;2022-12-07T09:03:55;0.90;99.90
11569;DHT22;5840;46.894;15.542;2022-12-07T09:06:22;0.90;99.90
11569;DHT22;5840;46.894;15.542;2022-12-07T09:08:55;0.90;99.90
11569;DHT22;5840;46.894;15.542;2022-12-07T09:11:23;0.90;99.90
11569;DHT22;5840;46.894;15.542;2022-12-07T09:13:50;1.00;99.90
11569;DHT22;5840;46.894;15.542;2022-12-07T09:16:17;1.00;99.90
11569;DHT22;5840;46.894;15.542;2022-12-07T09:18:44;0.90;99.90
11569;DHT22;5840;46.894;15.542;2022-12-07T09:21:11;1.00;99.90
11569;DHT22;5840;46.894;15.542;2022-12-07T09:23:38;1.00;99.90
11569;DHT22;5840;46.894;15.542;2022-12-07T09:26:06;1.00;99.90
11569;DHT22;5840;46.894;15.542;2022-12-07T09:28:33;1.10;99.90
11569;DHT22;5840;46.894;15.542;2022-12-07T09:31:02;1.00;99.90
11569;DHT22;5840;46.894;15.542;2022-12-07T09:33:29;1.00;99.90
11569;DHT22;5840;46.894;15.542;2022-12-07T09:35:56;1.00;99.90
11569;DHT22;5840;46.894;15.542;2022-12-07T09:38:23;1.00;99.90
11569;DHT22;5840;46.894;15.542;2022-12-07T09:40:52;1.00;99.90
11569;DHT22;5840;46.894;15.542;2022-12-07T09:43:23;1.00;99.90
11569;DHT22;5840;46.894;15.542;2022-12-07T09:45:53;1.00;99.90
11569;DHT22;5840;46.894;15.542;2022-12-07T09:48:22;1.00;99.90
11569;DHT22;5840;46.894;15.542;2022-12-07T09:50:51;1.10;99.90
11569;DHT22;5840;46.894;15.542;2022-12-07T09:53:26;1.10;99.90
11569;DHT22;5840;46.894;15.542;2022-12-07T09:55:54;1.20;99.90
11569;DHT22;5840;46.894;15.542;2022-12-07T09:58:24;1.20;99.90
11569;DHT22;5840;46.894;15.542;2022-12-07T10:00:53;1.20;99.90
11569;DHT22;5840;46.894;15.542;2022-12-07T10:03:22;1.30;99.90
11569;DHT22;5840;46.894;15.542;2022-12-07T10:05:50;1.30;99.90
11569;DHT22;5840;46.894;15.542;2022-12-07T10:08:18;1.30;99.90
11569;DHT22;5840;46.894;15.542;2022-12-07T10:10:49;1.30;99.90
11569;DHT22;5840;46.894;15.542;2022-12-07T10:13:20;1.30;99.90
11569;DHT22;5840;46.894;15.542;2022-12-07T10:15:51;1.30;99.90
11569;DHT22;5840;46.894;15.542;2022-12-07T10:18:30;1.40;99.90
11569;DHT22;5840;46.894;15.542;2022-12-07T10:21:05;1.40;99.90
11569;DHT22;5840;46.894;15.542;2022-12-07T10:23:33;1.40;99.90
11569;DHT22;5840;46.894;15.542;2022-12-07T10:26:20;1.40;99.90
11569;DHT22;5840;46.894;15.542;2022-12-07T10:28:48;1.40;99.90
11569;DHT22;5840;46.894;15.542;2022-12-07T10:31:19;1.50;99.90
11569;DHT22;5840;46.894;15.542;2022-12-07T10:33:52;1.50;99.90
11569;DHT22;5840;46.894;15.542;2022-12-07T10:36:22;1.50;99.90
11569;DHT22;5840;46.894;15.542;2022-12-07T10:38:52;1.50;99.90
11569;DHT22;5840;46.894;15.542;2022-12-07T10:41:27;1.50;99.90
11569;DHT22;5840;46.894;15.542;2022-12-07T10:43:55;1.60;99.90
11569;DHT22;5840;46.894;15.542;2022-12-07T10:46:59;1.70;99.90
11569;DHT22;5840;46.894;15.542;2022-12-07T10:52:58;1.80;99.90
11569;DHT22;5840;46.894;15.542;2022-12-07T10:55:38;1.90;99.90
11569;DHT22;5840;46.894;15.542;2022-12-07T10:58:21;1.90;99.90
11569;DHT22;5840;46.894;15.542;2022-12-07T11:00:56;2.00;99.90
11569;DHT22;5840;46.894;15.542;2022-12-07T11:03:48;2.00;99.90
11569;DHT22;5840;46.894;15.542;2022-12-07T11:06:25;2.10;99.90
11569;DHT22;5840;46.894;15.542;2022-12-07T11:09:03;2.10;99.90
11569;DHT22;5840;46.894;15.542;2022-12-07T11:11:34;2.20;99.90
11569;DHT22;5840;46.894;15.542;2022-12-07T11:14:12;2.20;99.90
11569;DHT22;5840;46.894;15.542;2022-12-07T11:16:50;2.30;99.90
11569;DHT22;5840;46.894;15.542;2022-12-07T11:19:28;2.30;99.90
11569;DHT22;5840;46.894;15.542;2022-12-07T11:21:57;2.30;99.90
11569;DHT22;5840;46.894;15.542;2022-12-07T11:24:30;2.40;99.90
11569;DHT22;5840;46.894;15.542;2022-12-07T11:27:13;2.40;99.90
11569;DHT22;5840;46.894;15.542;2022-12-07T11:30:01;2.40;99.90
11569;DHT22;5840;46.894;15.542;2022-12-07T11:32:45;2.40;99.90
11569;DHT22;5840;46.894;15.542;2022-12-07T11:35:21;2.40;99.90
11569;DHT22;5840;46.894;15.542;2022-12-07T11:37:54;2.40;99.90
11569;DHT22;5840;46.894;15.542;2022-12-07T11:40:27;2.40;99.90
11569;DHT22;5840;46.894;15.542;2022-12-07T11:42:59;2.40;99.90
11569;DHT22;5840;46.894;15.542;2022-12-07T11:45:30;2.50;99.90
11569;DHT22;5840;46.894;15.542;2022-12-07T11:48:00;2.50;99.90
11569;DHT22;5840;46.894;15.542;2022-12-07T11:50:33;2.50;99.90
11569;DHT22;5840;46.894;15.542;2022-12-07T11:53:05;2.50;99.90
11569;DHT22;5840;46.894;15.542;2022-12-07T11:55:42;2.50;99.90
11569;DHT22;5840;46.894;15.542;2022-12-07T12:01:13;2.60;99.90
11569;DHT22;5840;46.894;15.542;2022-12-07T12:03:45;2.60;99.90
11569;DHT22;5840;46.894;15.542;2022-12-07T12:06:14;2.60;99.90
11569;DHT22;5840;46.894;15.542;2022-12-07T12:08:45;2.60;99.90
11569;DHT22;5840;46.894;15.542;2022-12-07T12:11:25;2.60;99.90
11569;DHT22;5840;46.894;15.542;2022-12-07T12:14:15;2.60;99.90
11569;DHT22;5840;46.894;15.542;2022-12-07T12:20:03;2.50;99.90
11569;DHT22;5840;46.894;15.542;2022-12-07T12:22:36;2.50;99.90
11569;DHT22;5840;46.894;15.542;2022-12-07T12:25:06;2.50;99.90
11569;DHT22;5840;46.894;15.542;2022-12-07T12:27:37;2.50;99.90
11569;DHT22;5840;46.894;15.542;2022-12-07T12:30:07;2.50;99.90
11569;DHT22;5840;46.894;15.542;2022-12-07T12:32:50;2.50;99.90
11569;DHT22;5840;46.894;15.542;2022-12-07T12:35:30;2.50;99.90
11569;DHT22;5840;46.894;15.542;2022-12-07T12:38:29;2.50;99.90
11569;DHT22;5840;46.894;15.542;2022-12-07T12:41:00;2.50;99.90
11569;DHT22;5840;46.894;15.542;2022-12-07T12:43:46;2.60;99.90
11569;DHT22;5840;46.894;15.542;2022-12-07T12:46:49;2.60;99.90
11569;DHT22;5840;46.894;15.542;2022-12-07T12:52:52;2.60;99.90
11569;DHT22;5840;46.894;15.542;2022-12-07T12:58:38;2.60;99.90
11569;DHT22;5840;46.894;15.542;2022-12-07T13:01:40;2.60;99.90
11569;DHT22;5840;46.894;15.542;2022-12-07T13:07:47;2.60;99.90
11569;DHT22;5840;46.894;15.542;2022-12-07T13:10:27;2.60;99.90
11569;DHT22;5840;46.894;15.542;2022-12-07T13:12:57;2.60;99.90
11569;DHT22;5840;46.894;15.542;2022-12-07T13:15:36;2.60;99.90
11569;DHT22;5840;46.894;15.542;2022-12-07T13:18:23;2.60;99.90
11569;DHT22;5840;46.894;15.542;2022-12-07T13:20:55;2.70;99.90
11569;DHT22;5840;46.894;15.542;2022-12-07T13:23:26;2.70;99.90
11569;DHT22;5840;46.894;15.542;2022-12-07T13:28:47;2.70;99.90
11569;DHT22;5840;46.894;15.542;2022-12-07T13:31:20;2.70;99.90
11569;DHT22;5840;46.894;15.542;2022-12-07T13:33:49;2.70;99.90
11569;DHT22;5840;46.894;15.542;2022-12-07T13:36:21;2.70;99.90
11569;DHT22;5840;46.894;15.542;2022-12-07T13:38:50;2.70;99.90
11569;DHT22;5840;46.894;15.542;2022-12-07T13:41:21;2.80;99.90
11569;DHT22;5840;46.894;15.542;2022-12-07T13:43:50;2.80;99.90
11569;DHT22;5840;46.894;15.542;2022-12-07T13:46:20;2.80;99.90
11569;DHT22;5840;46.894;15.542;2022-12-07T13:48:50;2.90;99.90
11569;DHT22;5840;46.894;15.542;2022-12-07T13:51:20;2.90;99.90
11569;DHT22;5840;46.894;15.542;2022-12-07T13:53:52;3.00;99.90
11569;DHT22;5840;46.894;15.542;2022-12-07T13:56:27;3.00;99.90
11569;DHT22;5840;46.894;15.542;2022-12-07T13:58:55;3.00;99.90
11569;DHT22;5840;46.894;15.542;2022-12-07T14:01:24;3.00;99.90
11569;DHT22;5840;46.894;15.542;2022-12-07T14:03:51;3.10;99.90
11569;DHT22;5840;46.894;15.542;2022-12-07T14:06:23;3.10;99.90
11569;DHT22;5840;46.894;15.542;2022-12-07T14:09:14;3.10;99.90
11569;DHT22;5840;46.894;15.542;2022-12-07T14:11:45;3.10;99.90
11569;DHT22;5840;46.894;15.542;2022-12-07T14:14:15;3.10;99.90
11569;DHT22;5840;46.894;15.542;2022-12-07T14:16:43;3.10;99.90
11569;DHT22;5840;46.894;15.542;2022-12-07T14:19:41;3.20;99.90
11569;DHT22;5840;46.894;15.542;2022-12-07T14:22:15;3.20;99.90
11569;DHT22;5840;46.894;15.542;2022-12-07T14:24:44;3.20;99.90
11569;DHT22;5840;46.894;15.542;2022-12-07T14:27:18;3.20;99.90
11569;DHT22;5840;46.894;15.542;2022-12-07T14:29:46;3.20;99.90
11569;DHT22;5840;46.894;15.542;2022-12-07T14:32:23;3.20;99.90
11569;DHT22;5840;46.894;15.542;2022-12-07T14:35:08;3.10;99.90
11569;DHT22;5840;46.894;15.542;2022-12-07T14:37:36;3.10;99.90
11569;DHT22;5840;46.894;15.542;2022-12-07T14:40:04;3.10;99.90
11569;DHT22;5840;46.894;15.542;2022-12-07T14:42:34;3.00;99.90
11569;DHT22;5840;46.894;15.542;2022-12-07T14:45:01;3.00;99.90
11569;DHT22;5840;46.894;15.542;2022-12-07T14:47:27;3.00;99.90
11569;DHT22;5840;46.894;15.542;2022-12-07T14:49:54;3.00;99.90
11569;DHT22;5840;46.894;15.542;2022-12-07T14:52:24;2.90;99.90
11569;DHT22;5840;46.894;15.542;2022-12-07T14:54:53;2.90;99.90
11569;DHT22;5840;46.894;15.542;2022-12-07T14:57:20;2.90;99.90
11569;DHT22;5840;46.894;15.542;2022-12-07T14:59:48;2.90;99.90
11569;DHT22;5840;46.894;15.542;2022-12-07T15:02:15;2.90;99.90
11569;DHT22;5840;46.894;15.542;2022-12-07T15:04:42;2.80;99.90
11569;DHT22;5840;46.894;15.542;2022-12-07T15:07:14;2.80;99.90
11569;DHT22;5840;46.894;15.542;2022-12-07T15:09:42;2.80;99.90
11569;DHT22;5840;46.894;15.542;2022-12-07T15:12:09;2.80;99.90
11569;DHT22;5840;46.894;15.542;2022-12-07T15:14:36;2.80;99.90
11569;DHT22;5840;46.894;15.542;2022-12-07T15:17:04;2.80;99.90
11569;DHT22;5840;46.894;15.542;2022-12-07T15:19:32;2.70;99.90
11569;DHT22;5840;46.894;15.542;2022-12-07T15:21:58;2.70;99.90
11569;DHT22;5840;46.894;15.542;2022-12-07T15:24:26;2.70;99.90
11569;DHT22;5840;46.894;15.542;2022-12-07T15:26:53;2.60;99.90
11569;DHT22;5840;46.894;15.542;2022-12-07T15:29:20;2.60;99.90
11569;DHT22;5840;46.894;15.542;2022-12-07T15:31:48;2.60;99.90
11569;DHT22;5840;46.894;15.542;2022-12-07T15:34:16;2.60;99.90
11569;DHT22;5840;46.894;15.542;2022-12-07T15:36:43;2.50;99.90
11569;DHT22;5840;46.894;15.542;2022-12-07T15:39:10;2.50;99.90
11569;DHT22;5840;46.894;15.542;2022-12-07T15:41:37;2.50;99.90
11569;DHT22;5840;46.894;15.542;2022-12-07T15:44:04;2.50;99.90
11569;DHT22;5840;46.894;15.542;2022-12-07T15:46:49;2.50;99.90
11569;DHT22;5840;46.894;15.542;2022-12-07T15:49:18;2.50;99.90
11569;DHT22;5840;46.894;15.542;2022-12-07T15:51:45;2.50;99.90
11569;DHT22;5840;46.894;15.542;2022-12-07T15:54:16;2.50;99.90
11569;DHT22;5840;46.894;15.542;2022-12-07T15:56:44;2.50;99.90
11569;DHT22;5840;46.894;15.542;2022-12-07T15:59:11;2.50;99.90
11569;DHT22;5840;46.894;15.542;2022-12-07T16:01:38;2.50;99.90
11569;DHT22;5840;46.894;15.542;2022-12-07T16:04:05;2.50;99.90
11569;DHT22;5840;46.894;15.542;2022-12-07T16:06:33;2.50;99.90
11569;DHT22;5840;46.894;15.542;2022-12-07T16:09:00;2.50;99.90
11569;DHT22;5840;46.894;15.542;2022-12-07T16:11:27;2.50;99.90
11569;DHT22;5840;46.894;15.542;2022-12-07T16:13:54;2.60;99.90
11569;DHT22;5840;46.894;15.542;2022-12-07T16:16:21;2.60;99.90
11569;DHT22;5840;46.894;15.542;2022-12-07T16:18:49;2.60;99.90
11569;DHT22;5840;46.894;15.542;2022-12-07T16:21:17;2.60;99.90
11569;DHT22;5840;46.894;15.542;2022-12-07T16:23:46;2.60;99.90
11569;DHT22;5840;46.894;15.542;2022-12-07T16:26:18;2.60;99.90
11569;DHT22;5840;46.894;15.542;2022-12-07T16:28:48;2.60;99.90
11569;DHT22;5840;46.894;15.542;2022-12-07T16:31:16;2.70;99.90
11569;DHT22;5840;46.894;15.542;2022-12-07T16:33:44;2.70;99.90